sensor_id;sensor_type;location;lat;lon;timestamp;P1;durP1;ratioP1;P2;durP2;ratioP2
53833;SDS011;39735;51.432;5.482;2024-02-16T00:00:04;4.53;;;3.42;;
53833;SDS011;39735;51.432;5.482;2024-02-16T00:02:30;10.52;;;3.50;;
53833;SDS011;39735;51.432;5.482;2024-02-16T00:04:57;13.93;;;5.22;;
53833;SDS011;39735;51.432;5.482;2024-02-16T00:07:23;19.80;;;4.20;;
53833;SDS011;39735;51.432;5.482;2024-02-16T00:09:49;7.47;;;3.63;;
53833;SDS011;39735;51.432;5.482;2024-02-16T00:12:14;13.73;;;4.75;;
53833;SDS011;39735;51.432;5.482;2024-02-16T00:14:40;14.90;;;3.42;;
53833;SDS011;39735;51.432;5.482;2024-02-16T00:17:05;6.50;;;2.70;;
53833;SDS011;39735;51.432;5.482;2024-02-16T00:19:32;17.40;;;3.75;;
53833;SDS011;39735;51.432;5.482;2024-02-16T00:21:57;18.67;;;3.22;;
53833;SDS011;39735;51.432;5.482;2024-02-16T00:24:22;12.45;;;3.85;;
53833;SDS011;39735;51.432;5.482;2024-02-16T00:26:48;8.90;;;4.20;;
53833;SDS011;39735;51.432;5.482;2024-02-16T00:29:14;18.98;;;3.85;;
53833;SDS011;39735;51.432;5.482;2024-02-16T00:31:40;5.60;;;3.28;;
53833;SDS011;39735;51.432;5.482;2024-02-16T00:34:05;12.50;;;3.25;;
53833;SDS011;39735;51.432;5.482;2024-02-16T00:36:31;7.28;;;3.50;;
53833;SDS011;39735;51.432;5.482;2024-02-16T00:38:59;15.02;;;2.92;;
53833;SDS011;39735;51.432;5.482;2024-02-16T00:41:24;10.23;;;3.83;;
53833;SDS011;39735;51.432;5.482;2024-02-16T00:43:50;6.75;;;3.47;;
53833;SDS011;39735;51.432;5.482;2024-02-16T00:46:17;7.80;;;4.05;;
53833;SDS011;39735;51.432;5.482;2024-02-16T00:48:43;9.55;;;3.10;;
53833;SDS011;39735;51.432;5.482;2024-02-16T00:51:08;4.28;;;2.95;;
53833;SDS011;39735;51.432;5.482;2024-02-16T00:53:34;13.82;;;4.13;;
53833;SDS011;39735;51.432;5.482;2024-02-16T00:55:59;11.27;;;3.63;;
53833;SDS011;39735;51.432;5.482;2024-02-16T00:58:24;4.25;;;3.17;;
53833;SDS011;39735;51.432;5.482;2024-02-16T01:00:50;15.43;;;4.63;;
53833;SDS011;39735;51.432;5.482;2024-02-16T01:03:15;14.50;;;3.55;;
53833;SDS011;39735;51.432;5.482;2024-02-16T01:05:40;6.80;;;3.13;;
53833;SDS011;39735;51.432;5.482;2024-02-16T01:08:06;15.90;;;3.92;;
53833;SDS011;39735;51.432;5.482;2024-02-16T01:10:32;15.52;;;3.03;;
53833;SDS011;39735;51.432;5.482;2024-02-16T01:12:57;5.15;;;2.90;;
53833;SDS011;39735;51.432;5.482;2024-02-16T01:15:23;9.00;;;3.17;;
53833;SDS011;39735;51.432;5.482;2024-02-16T01:17:48;7.25;;;5.15;;
53833;SDS011;39735;51.432;5.482;2024-02-16T01:20:14;3.22;;;2.92;;
53833;SDS011;39735;51.432;5.482;2024-02-16T01:22:39;3.88;;;3.28;;
53833;SDS011;39735;51.432;5.482;2024-02-16T01:25:05;15.90;;;4.55;;
53833;SDS011;39735;51.432;5.482;2024-02-16T01:27:32;12.18;;;3.35;;
53833;SDS011;39735;51.432;5.482;2024-02-16T01:29:57;11.05;;;3.97;;
53833;SDS011;39735;51.432;5.482;2024-02-16T01:32:23;11.50;;;2.78;;
53833;SDS011;39735;51.432;5.482;2024-02-16T01:34:48;21.55;;;3.80;;
53833;SDS011;39735;51.432;5.482;2024-02-16T01:37:15;6.55;;;3.72;;
53833;SDS011;39735;51.432;5.482;2024-02-16T01:39:40;12.45;;;2.78;;
53833;SDS011;39735;51.432;5.482;2024-02-16T01:42:05;10.00;;;3.05;;
53833;SDS011;39735;51.432;5.482;2024-02-16T01:44:31;3.83;;;2.70;;
53833;SDS011;39735;51.432;5.482;2024-02-16T01:46:56;10.40;;;3.95;;
53833;SDS011;39735;51.432;5.482;2024-02-16T01:49:22;6.18;;;3.45;;
53833;SDS011;39735;51.432;5.482;2024-02-16T01:51:47;5.32;;;3.20;;
53833;SDS011;39735;51.432;5.482;2024-02-16T01:54:13;9.85;;;3.28;;
53833;SDS011;39735;51.432;5.482;2024-02-16T01:56:42;14.93;;;5.10;;
53833;SDS011;39735;51.432;5.482;2024-02-16T01:59:08;11.38;;;3.08;;
53833;SDS011;39735;51.432;5.482;2024-02-16T02:01:33;19.33;;;3.17;;
53833;SDS011;39735;51.432;5.482;2024-02-16T02:03:59;11.50;;;3.05;;
53833;SDS011;39735;51.432;5.482;2024-02-16T02:06:25;5.95;;;3.15;;
53833;SDS011;39735;51.432;5.482;2024-02-16T02:08:50;7.90;;;4.70;;
53833;SDS011;39735;51.432;5.482;2024-02-16T02:11:16;11.45;;;3.50;;
53833;SDS011;39735;51.432;5.482;2024-02-16T02:13:42;5.28;;;3.45;;
53833;SDS011;39735;51.432;5.482;2024-02-16T02:16:07;15.30;;;4.10;;
53833;SDS011;39735;51.432;5.482;2024-02-16T02:18:33;5.88;;;3.63;;
53833;SDS011;39735;51.432;5.482;2024-02-16T02:20:59;5.78;;;2.78;;
53833;SDS011;39735;51.432;5.482;2024-02-16T02:23:24;6.60;;;3.20;;
53833;SDS011;39735;51.432;5.482;2024-02-16T02:25:50;7.38;;;3.53;;
53833;SDS011;39735;51.432;5.482;2024-02-16T02:28:15;4.90;;;3.05;;
53833;SDS011;39735;51.432;5.482;2024-02-16T02:30:41;6.80;;;3.95;;
53833;SDS011;39735;51.432;5.482;2024-02-16T02:33:07;9.18;;;3.33;;
53833;SDS011;39735;51.432;5.482;2024-02-16T02:35:34;9.48;;;3.35;;
53833;SDS011;39735;51.432;5.482;2024-02-16T02:37:59;7.22;;;2.90;;
53833;SDS011;39735;51.432;5.482;2024-02-16T02:40:25;5.95;;;3.17;;
53833;SDS011;39735;51.432;5.482;2024-02-16T02:42:50;6.95;;;3.15;;
53833;SDS011;39735;51.432;5.482;2024-02-16T02:45:16;10.60;;;3.50;;
53833;SDS011;39735;51.432;5.482;2024-02-16T02:47:41;9.38;;;3.30;;
53833;SDS011;39735;51.432;5.482;2024-02-16T02:50:07;8.35;;;3.65;;
53833;SDS011;39735;51.432;5.482;2024-02-16T02:52:33;8.88;;;3.25;;
53833;SDS011;39735;51.432;5.482;2024-02-16T02:54:58;3.33;;;3.03;;
53833;SDS011;39735;51.432;5.482;2024-02-16T02:57:24;5.38;;;3.10;;
53833;SDS011;39735;51.432;5.482;2024-02-16T02:59:49;10.15;;;3.63;;
53833;SDS011;39735;51.432;5.482;2024-02-16T03:02:14;8.98;;;4.32;;
53833;SDS011;39735;51.432;5.482;2024-02-16T03:04:41;4.55;;;3.15;;
53833;SDS011;39735;51.432;5.482;2024-02-16T03:07:06;3.22;;;2.50;;
53833;SDS011;39735;51.432;5.482;2024-02-16T03:09:32;6.70;;;3.05;;
53833;SDS011;39735;51.432;5.482;2024-02-16T03:11:57;7.93;;;3.63;;
53833;SDS011;39735;51.432;5.482;2024-02-16T03:14:22;6.30;;;3.70;;
53833;SDS011;39735;51.432;5.482;2024-02-16T03:16:48;5.22;;;2.25;;
53833;SDS011;39735;51.432;5.482;2024-02-16T03:19:13;5.80;;;2.63;;
53833;SDS011;39735;51.432;5.482;2024-02-16T03:21:39;6.18;;;2.80;;
53833;SDS011;39735;51.432;5.482;2024-02-16T03:24:05;5.03;;;3.63;;
53833;SDS011;39735;51.432;5.482;2024-02-16T03:26:30;7.63;;;3.38;;
53833;SDS011;39735;51.432;5.482;2024-02-16T03:28:57;14.05;;;2.42;;
53833;SDS011;39735;51.432;5.482;2024-02-16T03:31:23;2.85;;;2.70;;
53833;SDS011;39735;51.432;5.482;2024-02-16T03:33:49;4.30;;;3.47;;
53833;SDS011;39735;51.432;5.482;2024-02-16T03:36:16;10.95;;;3.65;;
53833;SDS011;39735;51.432;5.482;2024-02-16T03:38:43;8.82;;;2.65;;
53833;SDS011;39735;51.432;5.482;2024-02-16T03:41:13;6.55;;;2.33;;
53833;SDS011;39735;51.432;5.482;2024-02-16T03:43:40;3.60;;;3.17;;
53833;SDS011;39735;51.432;5.482;2024-02-16T03:46:05;3.45;;;3.13;;
53833;SDS011;39735;51.432;5.482;2024-02-16T03:48:31;4.80;;;2.92;;
53833;SDS011;39735;51.432;5.482;2024-02-16T03:50:56;5.35;;;2.85;;
53833;SDS011;39735;51.432;5.482;2024-02-16T03:53:22;2.90;;;2.70;;
53833;SDS011;39735;51.432;5.482;2024-02-16T03:55:48;8.45;;;1.98;;
53833;SDS011;39735;51.432;5.482;2024-02-16T03:58:14;7.47;;;2.60;;
53833;SDS011;39735;51.432;5.482;2024-02-16T04:00:39;4.15;;;3.13;;
53833;SDS011;39735;51.432;5.482;2024-02-16T04:03:04;3.33;;;2.65;;
53833;SDS011;39735;51.432;5.482;2024-02-16T04:05:30;10.60;;;3.22;;
53833;SDS011;39735;51.432;5.482;2024-02-16T04:07:57;6.03;;;3.17;;
53833;SDS011;39735;51.432;5.482;2024-02-16T04:10:26;8.63;;;2.60;;
53833;SDS011;39735;51.432;5.482;2024-02-16T04:12:53;5.82;;;2.67;;
53833;SDS011;39735;51.432;5.482;2024-02-16T04:15:18;10.10;;;3.97;;
53833;SDS011;39735;51.432;5.482;2024-02-16T04:17:44;2.70;;;2.50;;
53833;SDS011;39735;51.432;5.482;2024-02-16T04:20:09;6.95;;;2.85;;
53833;SDS011;39735;51.432;5.482;2024-02-16T04:22:36;8.43;;;3.22;;
53833;SDS011;39735;51.432;5.482;2024-02-16T04:25:03;9.80;;;4.38;;
53833;SDS011;39735;51.432;5.482;2024-02-16T04:27:29;2.80;;;2.60;;
53833;SDS011;39735;51.432;5.482;2024-02-16T04:29:54;11.75;;;2.72;;
53833;SDS011;39735;51.432;5.482;2024-02-16T04:32:20;9.43;;;3.00;;
53833;SDS011;39735;51.432;5.482;2024-02-16T04:34:45;4.47;;;3.25;;
53833;SDS011;39735;51.432;5.482;2024-02-16T04:37:12;11.07;;;3.83;;
53833;SDS011;39735;51.432;5.482;2024-02-16T04:39:37;11.00;;;5.53;;
53833;SDS011;39735;51.432;5.482;2024-02-16T04:42:03;7.00;;;3.78;;
53833;SDS011;39735;51.432;5.482;2024-02-16T04:44:29;13.18;;;6.10;;
53833;SDS011;39735;51.432;5.482;2024-02-16T04:46:54;14.50;;;2.85;;
53833;SDS011;39735;51.432;5.482;2024-02-16T04:49:20;5.95;;;2.63;;
53833;SDS011;39735;51.432;5.482;2024-02-16T04:51:46;9.40;;;2.55;;
53833;SDS011;39735;51.432;5.482;2024-02-16T04:54:12;6.97;;;3.75;;
53833;SDS011;39735;51.432;5.482;2024-02-16T04:56:38;11.98;;;4.20;;
53833;SDS011;39735;51.432;5.482;2024-02-16T04:59:04;10.43;;;2.65;;
53833;SDS011;39735;51.432;5.482;2024-02-16T05:01:30;7.00;;;3.03;;
53833;SDS011;39735;51.432;5.482;2024-02-16T05:03:57;7.82;;;3.83;;
53833;SDS011;39735;51.432;5.482;2024-02-16T05:06:23;12.18;;;3.33;;
53833;SDS011;39735;51.432;5.482;2024-02-16T05:08:48;7.72;;;3.20;;
53833;SDS011;39735;51.432;5.482;2024-02-16T05:11:15;6.65;;;3.38;;
53833;SDS011;39735;51.432;5.482;2024-02-16T05:13:40;5.68;;;2.42;;
53833;SDS011;39735;51.432;5.482;2024-02-16T05:16:11;4.70;;;2.72;;
53833;SDS011;39735;51.432;5.482;2024-02-16T05:18:37;12.13;;;3.45;;
53833;SDS011;39735;51.432;5.482;2024-02-16T05:21:03;3.83;;;2.15;;
53833;SDS011;39735;51.432;5.482;2024-02-16T05:23:28;10.43;;;4.45;;
53833;SDS011;39735;51.432;5.482;2024-02-16T05:25:54;13.73;;;2.72;;
53833;SDS011;39735;51.432;5.482;2024-02-16T05:28:19;11.05;;;3.28;;
53833;SDS011;39735;51.432;5.482;2024-02-16T05:30:45;2.70;;;2.53;;
53833;SDS011;39735;51.432;5.482;2024-02-16T05:33:11;15.27;;;3.53;;
53833;SDS011;39735;51.432;5.482;2024-02-16T05:35:36;9.82;;;3.20;;
53833;SDS011;39735;51.432;5.482;2024-02-16T05:38:05;7.10;;;3.13;;
53833;SDS011;39735;51.432;5.482;2024-02-16T05:40:54;4.75;;;2.60;;
53833;SDS011;39735;51.432;5.482;2024-02-16T05:43:21;14.82;;;2.35;;
53833;SDS011;39735;51.432;5.482;2024-02-16T05:45:48;4.28;;;3.08;;
53833;SDS011;39735;51.432;5.482;2024-02-16T05:48:14;11.95;;;3.97;;
53833;SDS011;39735;51.432;5.482;2024-02-16T05:50:39;12.98;;;4.38;;
53833;SDS011;39735;51.432;5.482;2024-02-16T05:53:06;10.13;;;3.22;;
53833;SDS011;39735;51.432;5.482;2024-02-16T05:55:31;23.50;;;5.55;;
53833;SDS011;39735;51.432;5.482;2024-02-16T05:57:57;10.90;;;2.65;;
53833;SDS011;39735;51.432;5.482;2024-02-16T06:00:23;7.15;;;4.03;;
53833;SDS011;39735;51.432;5.482;2024-02-16T06:02:48;7.65;;;3.83;;
53833;SDS011;39735;51.432;5.482;2024-02-16T06:05:14;24.60;;;3.90;;
53833;SDS011;39735;51.432;5.482;2024-02-16T06:07:39;22.33;;;3.22;;
53833;SDS011;39735;51.432;5.482;2024-02-16T06:10:05;40.72;;;3.30;;
53833;SDS011;39735;51.432;5.482;2024-02-16T06:12:38;8.27;;;3.38;;
53833;SDS011;39735;51.432;5.482;2024-02-16T06:15:07;7.00;;;3.20;;
53833;SDS011;39735;51.432;5.482;2024-02-16T06:17:33;3.92;;;2.90;;
53833;SDS011;39735;51.432;5.482;2024-02-16T06:19:58;8.27;;;2.53;;
53833;SDS011;39735;51.432;5.482;2024-02-16T06:22:23;11.00;;;3.00;;
53833;SDS011;39735;51.432;5.482;2024-02-16T06:24:49;2.58;;;2.22;;
53833;SDS011;39735;51.432;5.482;2024-02-16T06:27:15;3.30;;;2.45;;
53833;SDS011;39735;51.432;5.482;2024-02-16T06:29:41;17.77;;;3.47;;
53833;SDS011;39735;51.432;5.482;2024-02-16T06:32:06;13.40;;;5.72;;
53833;SDS011;39735;51.432;5.482;2024-02-16T06:34:32;10.05;;;3.42;;
53833;SDS011;39735;51.432;5.482;2024-02-16T06:36:57;5.63;;;3.03;;
53833;SDS011;39735;51.432;5.482;2024-02-16T06:39:23;10.60;;;2.92;;
53833;SDS011;39735;51.432;5.482;2024-02-16T06:41:48;8.13;;;3.33;;
53833;SDS011;39735;51.432;5.482;2024-02-16T06:44:16;17.25;;;3.70;;
53833;SDS011;39735;51.432;5.482;2024-02-16T06:46:42;5.75;;;3.83;;
53833;SDS011;39735;51.432;5.482;2024-02-16T06:49:08;11.15;;;2.42;;
53833;SDS011;39735;51.432;5.482;2024-02-16T06:51:35;5.80;;;2.72;;
53833;SDS011;39735;51.432;5.482;2024-02-16T06:54:02;8.13;;;2.78;;
53833;SDS011;39735;51.432;5.482;2024-02-16T06:56:28;8.55;;;3.17;;
53833;SDS011;39735;51.432;5.482;2024-02-16T06:58:54;7.20;;;2.83;;
53833;SDS011;39735;51.432;5.482;2024-02-16T07:01:19;20.60;;;3.42;;
53833;SDS011;39735;51.432;5.482;2024-02-16T07:03:44;9.23;;;3.38;;
53833;SDS011;39735;51.432;5.482;2024-02-16T07:06:10;7.32;;;3.97;;
53833;SDS011;39735;51.432;5.482;2024-02-16T07:08:38;31.25;;;4.20;;
53833;SDS011;39735;51.432;5.482;2024-02-16T07:11:07;12.98;;;3.40;;
53833;SDS011;39735;51.432;5.482;2024-02-16T07:13:33;7.53;;;2.92;;
53833;SDS011;39735;51.432;5.482;2024-02-16T07:15:59;6.85;;;3.83;;
53833;SDS011;39735;51.432;5.482;2024-02-16T07:18:25;4.57;;;2.30;;
53833;SDS011;39735;51.432;5.482;2024-02-16T07:20:50;9.95;;;5.35;;
53833;SDS011;39735;51.432;5.482;2024-02-16T07:23:15;10.52;;;3.55;;
53833;SDS011;39735;51.432;5.482;2024-02-16T07:25:41;9.88;;;3.53;;
53833;SDS011;39735;51.432;5.482;2024-02-16T07:28:07;7.88;;;4.30;;
53833;SDS011;39735;51.432;5.482;2024-02-16T07:30:33;20.52;;;4.47;;
53833;SDS011;39735;51.432;5.482;2024-02-16T07:32:59;7.15;;;3.70;;
53833;SDS011;39735;51.432;5.482;2024-02-16T07:35:25;30.85;;;4.30;;
53833;SDS011;39735;51.432;5.482;2024-02-16T07:37:50;6.93;;;3.22;;
53833;SDS011;39735;51.432;5.482;2024-02-16T07:40:19;16.83;;;3.60;;
53833;SDS011;39735;51.432;5.482;2024-02-16T07:42:45;7.07;;;3.50;;
53833;SDS011;39735;51.432;5.482;2024-02-16T07:45:11;7.90;;;3.47;;
53833;SDS011;39735;51.432;5.482;2024-02-16T07:47:37;8.07;;;4.28;;
53833;SDS011;39735;51.432;5.482;2024-02-16T07:50:08;9.98;;;4.18;;
53833;SDS011;39735;51.432;5.482;2024-02-16T07:52:34;3.53;;;3.33;;
53833;SDS011;39735;51.432;5.482;2024-02-16T07:54:59;9.10;;;3.33;;
53833;SDS011;39735;51.432;5.482;2024-02-16T07:57:26;7.88;;;3.25;;
53833;SDS011;39735;51.432;5.482;2024-02-16T07:59:51;19.88;;;7.45;;
53833;SDS011;39735;51.432;5.482;2024-02-16T08:02:17;10.90;;;4.63;;
53833;SDS011;39735;51.432;5.482;2024-02-16T08:04:43;25.38;;;6.28;;
53833;SDS011;39735;51.432;5.482;2024-02-16T08:07:12;10.60;;;4.00;;
53833;SDS011;39735;51.432;5.482;2024-02-16T08:09:37;14.48;;;3.75;;
53833;SDS011;39735;51.432;5.482;2024-02-16T08:12:03;11.68;;;4.32;;
53833;SDS011;39735;51.432;5.482;2024-02-16T08:14:32;7.03;;;3.17;;
53833;SDS011;39735;51.432;5.482;2024-02-16T08:17:00;11.07;;;4.15;;
53833;SDS011;39735;51.432;5.482;2024-02-16T08:19:31;14.32;;;4.18;;
53833;SDS011;39735;51.432;5.482;2024-02-16T08:21:58;7.05;;;3.65;;
53833;SDS011;39735;51.432;5.482;2024-02-16T08:24:24;24.50;;;5.18;;
53833;SDS011;39735;51.432;5.482;2024-02-16T08:26:50;5.47;;;3.50;;
53833;SDS011;39735;51.432;5.482;2024-02-16T08:29:16;14.52;;;6.25;;
53833;SDS011;39735;51.432;5.482;2024-02-16T08:31:41;12.52;;;4.50;;
53833;SDS011;39735;51.432;5.482;2024-02-16T08:34:09;7.53;;;4.50;;
53833;SDS011;39735;51.432;5.482;2024-02-16T08:36:35;30.65;;;7.00;;
53833;SDS011;39735;51.432;5.482;2024-02-16T08:39:03;11.48;;;4.57;;
53833;SDS011;39735;51.432;5.482;2024-02-16T08:41:28;10.05;;;4.70;;
53833;SDS011;39735;51.432;5.482;2024-02-16T08:43:53;15.73;;;4.55;;
53833;SDS011;39735;51.432;5.482;2024-02-16T08:46:20;7.78;;;3.97;;
53833;SDS011;39735;51.432;5.482;2024-02-16T08:48:45;22.20;;;4.50;;
53833;SDS011;39735;51.432;5.482;2024-02-16T08:51:11;13.55;;;3.85;;
53833;SDS011;39735;51.432;5.482;2024-02-16T08:53:36;14.02;;;4.60;;
53833;SDS011;39735;51.432;5.482;2024-02-16T08:56:02;13.30;;;3.72;;
53833;SDS011;39735;51.432;5.482;2024-02-16T08:58:27;9.18;;;4.35;;
53833;SDS011;39735;51.432;5.482;2024-02-16T09:00:53;12.25;;;3.65;;
53833;SDS011;39735;51.432;5.482;2024-02-16T09:03:18;16.73;;;4.20;;
53833;SDS011;39735;51.432;5.482;2024-02-16T09:05:44;12.10;;;4.57;;
53833;SDS011;39735;51.432;5.482;2024-02-16T09:08:09;10.98;;;5.60;;
53833;SDS011;39735;51.432;5.482;2024-02-16T09:10:35;11.95;;;5.97;;
53833;SDS011;39735;51.432;5.482;2024-02-16T09:13:01;14.80;;;4.18;;
53833;SDS011;39735;51.432;5.482;2024-02-16T09:15:27;15.70;;;5.20;;
53833;SDS011;39735;51.432;5.482;2024-02-16T09:17:53;11.55;;;4.22;;
53833;SDS011;39735;51.432;5.482;2024-02-16T09:20:18;6.95;;;4.18;;
53833;SDS011;39735;51.432;5.482;2024-02-16T09:22:47;13.07;;;4.63;;
53833;SDS011;39735;51.432;5.482;2024-02-16T09:25:13;12.60;;;4.93;;
53833;SDS011;39735;51.432;5.482;2024-02-16T09:27:40;19.13;;;4.53;;
53833;SDS011;39735;51.432;5.482;2024-02-16T09:30:09;8.52;;;4.50;;
53833;SDS011;39735;51.432;5.482;2024-02-16T09:32:39;11.02;;;4.03;;
53833;SDS011;39735;51.432;5.482;2024-02-16T09:35:05;16.58;;;5.07;;
53833;SDS011;39735;51.432;5.482;2024-02-16T09:37:30;19.65;;;4.80;;
53833;SDS011;39735;51.432;5.482;2024-02-16T09:39:56;17.80;;;4.15;;
53833;SDS011;39735;51.432;5.482;2024-02-16T09:42:23;11.55;;;5.45;;
53833;SDS011;39735;51.432;5.482;2024-02-16T09:44:48;18.65;;;5.05;;
53833;SDS011;39735;51.432;5.482;2024-02-16T09:47:15;12.65;;;4.55;;
53833;SDS011;39735;51.432;5.482;2024-02-16T09:49:44;12.32;;;5.70;;
53833;SDS011;39735;51.432;5.482;2024-02-16T09:52:09;24.65;;;5.25;;
53833;SDS011;39735;51.432;5.482;2024-02-16T09:54:38;24.73;;;4.95;;
53833;SDS011;39735;51.432;5.482;2024-02-16T09:57:04;17.02;;;4.50;;
53833;SDS011;39735;51.432;5.482;2024-02-16T09:59:30;16.20;;;4.93;;
53833;SDS011;39735;51.432;5.482;2024-02-16T10:02:03;34.70;;;5.80;;
53833;SDS011;39735;51.432;5.482;2024-02-16T10:04:29;17.60;;;7.00;;
53833;SDS011;39735;51.432;5.482;2024-02-16T10:06:55;20.95;;;4.97;;
53833;SDS011;39735;51.432;5.482;2024-02-16T10:09:27;17.35;;;6.28;;
53833;SDS011;39735;51.432;5.482;2024-02-16T10:11:59;15.27;;;5.43;;
53833;SDS011;39735;51.432;5.482;2024-02-16T10:14:25;12.60;;;7.30;;
53833;SDS011;39735;51.432;5.482;2024-02-16T10:17:00;11.45;;;5.00;;
53833;SDS011;39735;51.432;5.482;2024-02-16T10:19:28;13.50;;;4.85;;
53833;SDS011;39735;51.432;5.482;2024-02-16T10:22:05;13.48;;;6.55;;
53833;SDS011;39735;51.432;5.482;2024-02-16T10:24:32;9.02;;;4.55;;
53833;SDS011;39735;51.432;5.482;2024-02-16T10:26:58;20.80;;;6.97;;
53833;SDS011;39735;51.432;5.482;2024-02-16T10:29:23;14.15;;;5.60;;
53833;SDS011;39735;51.432;5.482;2024-02-16T10:31:49;12.02;;;5.90;;
53833;SDS011;39735;51.432;5.482;2024-02-16T10:34:15;35.15;;;6.80;;
53833;SDS011;39735;51.432;5.482;2024-02-16T10:36:41;18.27;;;6.55;;
53833;SDS011;39735;51.432;5.482;2024-02-16T10:39:07;16.58;;;7.47;;
53833;SDS011;39735;51.432;5.482;2024-02-16T10:41:37;13.35;;;5.50;;
53833;SDS011;39735;51.432;5.482;2024-02-16T10:44:03;16.73;;;6.55;;
53833;SDS011;39735;51.432;5.482;2024-02-16T10:46:30;23.70;;;7.05;;
53833;SDS011;39735;51.432;5.482;2024-02-16T10:48:56;13.15;;;6.03;;
53833;SDS011;39735;51.432;5.482;2024-02-16T10:51:30;13.50;;;5.28;;
53833;SDS011;39735;51.432;5.482;2024-02-16T10:53:59;14.10;;;5.50;;
53833;SDS011;39735;51.432;5.482;2024-02-16T10:56:32;19.33;;;6.30;;
53833;SDS011;39735;51.432;5.482;2024-02-16T10:59:02;30.58;;;7.90;;
53833;SDS011;39735;51.432;5.482;2024-02-16T11:01:28;16.30;;;5.70;;
53833;SDS011;39735;51.432;5.482;2024-02-16T11:04:00;20.33;;;7.68;;
53833;SDS011;39735;51.432;5.482;2024-02-16T11:06:27;9.65;;;5.80;;
53833;SDS011;39735;51.432;5.482;2024-02-16T11:08:53;11.88;;;5.82;;
53833;SDS011;39735;51.432;5.482;2024-02-16T11:11:24;18.90;;;8.90;;
53833;SDS011;39735;51.432;5.482;2024-02-16T11:13:50;15.55;;;5.72;;
53833;SDS011;39735;51.432;5.482;2024-02-16T11:16:19;14.85;;;6.93;;
53833;SDS011;39735;51.432;5.482;2024-02-16T11:18:47;15.38;;;6.10;;
53833;SDS011;39735;51.432;5.482;2024-02-16T11:21:16;26.48;;;5.95;;
53833;SDS011;39735;51.432;5.482;2024-02-16T11:23:42;14.82;;;6.15;;
53833;SDS011;39735;51.432;5.482;2024-02-16T11:26:12;31.23;;;8.15;;
53833;SDS011;39735;51.432;5.482;2024-02-16T11:28:39;16.02;;;5.13;;
53833;SDS011;39735;51.432;5.482;2024-02-16T11:31:06;36.40;;;9.45;;
53833;SDS011;39735;51.432;5.482;2024-02-16T11:33:32;18.73;;;6.63;;
53833;SDS011;39735;51.432;5.482;2024-02-16T11:35:58;22.92;;;7.25;;
53833;SDS011;39735;51.432;5.482;2024-02-16T11:38:25;19.92;;;6.90;;
53833;SDS011;39735;51.432;5.482;2024-02-16T11:40:58;19.27;;;9.27;;
53833;SDS011;39735;51.432;5.482;2024-02-16T11:43:28;16.90;;;7.85;;
53833;SDS011;39735;51.432;5.482;2024-02-16T11:45:54;20.60;;;8.43;;
53833;SDS011;39735;51.432;5.482;2024-02-16T11:48:23;19.23;;;6.43;;
53833;SDS011;39735;51.432;5.482;2024-02-16T11:50:50;24.73;;;9.00;;
53833;SDS011;39735;51.432;5.482;2024-02-16T11:53:24;29.35;;;8.13;;
53833;SDS011;39735;51.432;5.482;2024-02-16T11:55:50;21.10;;;8.80;;
53833;SDS011;39735;51.432;5.482;2024-02-16T11:58:18;18.88;;;8.90;;
53833;SDS011;39735;51.432;5.482;2024-02-16T12:00:45;24.25;;;8.98;;
53833;SDS011;39735;51.432;5.482;2024-02-16T12:05:50;20.60;;;10.68;;
53833;SDS011;39735;51.432;5.482;2024-02-16T12:08:17;19.50;;;8.00;;
53833;SDS011;39735;51.432;5.482;2024-02-16T12:10:42;35.28;;;11.20;;
53833;SDS011;39735;51.432;5.482;2024-02-16T12:13:08;19.25;;;8.43;;
53833;SDS011;39735;51.432;5.482;2024-02-16T12:15:34;26.50;;;10.90;;
53833;SDS011;39735;51.432;5.482;2024-02-16T12:18:02;22.40;;;8.38;;
53833;SDS011;39735;51.432;5.482;2024-02-16T12:20:29;27.02;;;10.63;;
53833;SDS011;39735;51.432;5.482;2024-02-16T12:22:55;17.35;;;7.53;;
53833;SDS011;39735;51.432;5.482;2024-02-16T12:25:21;21.23;;;9.77;;
53833;SDS011;39735;51.432;5.482;2024-02-16T12:27:46;27.80;;;10.45;;
53833;SDS011;39735;51.432;5.482;2024-02-16T12:30:12;35.17;;;11.10;;
53833;SDS011;39735;51.432;5.482;2024-02-16T12:32:37;14.07;;;8.60;;
53833;SDS011;39735;51.432;5.482;2024-02-16T12:35:03;22.38;;;10.07;;
53833;SDS011;39735;51.432;5.482;2024-02-16T12:37:30;25.67;;;9.50;;
53833;SDS011;39735;51.432;5.482;2024-02-16T12:39:55;19.88;;;9.63;;
53833;SDS011;39735;51.432;5.482;2024-02-16T12:42:21;26.80;;;10.15;;
53833;SDS011;39735;51.432;5.482;2024-02-16T12:44:46;31.20;;;12.60;;
53833;SDS011;39735;51.432;5.482;2024-02-16T12:47:12;21.70;;;10.23;;
53833;SDS011;39735;51.432;5.482;2024-02-16T12:49:37;25.15;;;11.57;;
53833;SDS011;39735;51.432;5.482;2024-02-16T12:52:03;18.83;;;9.95;;
53833;SDS011;39735;51.432;5.482;2024-02-16T12:54:28;17.33;;;12.00;;
53833;SDS011;39735;51.432;5.482;2024-02-16T12:56:54;15.20;;;10.20;;
53833;SDS011;39735;51.432;5.482;2024-02-16T12:59:19;35.58;;;11.23;;
53833;SDS011;39735;51.432;5.482;2024-02-16T13:01:44;19.27;;;11.63;;
53833;SDS011;39735;51.432;5.482;2024-02-16T13:04:11;22.20;;;9.48;;
53833;SDS011;39735;51.432;5.482;2024-02-16T13:06:37;32.63;;;11.43;;
53833;SDS011;39735;51.432;5.482;2024-02-16T13:09:03;12.35;;;11.15;;
53833;SDS011;39735;51.432;5.482;2024-02-16T13:11:29;17.95;;;8.93;;
53833;SDS011;39735;51.432;5.482;2024-02-16T13:13:54;14.63;;;8.55;;
53833;SDS011;39735;51.432;5.482;2024-02-16T13:16:20;12.45;;;10.70;;
53833;SDS011;39735;51.432;5.482;2024-02-16T13:18:46;14.95;;;9.48;;
53833;SDS011;39735;51.432;5.482;2024-02-16T13:21:11;16.35;;;8.80;;
53833;SDS011;39735;51.432;5.482;2024-02-16T13:23:37;8.98;;;7.05;;
53833;SDS011;39735;51.432;5.482;2024-02-16T13:26:02;11.57;;;8.30;;
53833;SDS011;39735;51.432;5.482;2024-02-16T13:28:29;7.68;;;6.70;;
53833;SDS011;39735;51.432;5.482;2024-02-16T13:30:58;10.60;;;6.40;;
53833;SDS011;39735;51.432;5.482;2024-02-16T13:33:23;7.28;;;6.63;;
53833;SDS011;39735;51.432;5.482;2024-02-16T13:35:49;6.25;;;5.68;;
53833;SDS011;39735;51.432;5.482;2024-02-16T13:38:14;8.57;;;5.72;;
53833;SDS011;39735;51.432;5.482;2024-02-16T13:40:40;6.50;;;5.90;;
53833;SDS011;39735;51.432;5.482;2024-02-16T13:43:05;12.40;;;6.30;;
53833;SDS011;39735;51.432;5.482;2024-02-16T13:45:47;16.60;;;6.15;;
53833;SDS011;39735;51.432;5.482;2024-02-16T13:48:19;6.32;;;5.72;;
53833;SDS011;39735;51.432;5.482;2024-02-16T13:50:46;8.52;;;7.65;;
53833;SDS011;39735;51.432;5.482;2024-02-16T13:53:12;5.97;;;4.65;;
53833;SDS011;39735;51.432;5.482;2024-02-16T13:55:39;5.88;;;5.13;;
53833;SDS011;39735;51.432;5.482;2024-02-16T13:58:04;4.32;;;4.10;;
53833;SDS011;39735;51.432;5.482;2024-02-16T14:00:30;5.07;;;4.68;;
53833;SDS011;39735;51.432;5.482;2024-02-16T14:02:55;5.18;;;4.70;;
53833;SDS011;39735;51.432;5.482;2024-02-16T14:05:21;6.60;;;5.80;;
53833;SDS011;39735;51.432;5.482;2024-02-16T14:07:47;8.98;;;5.40;;
53833;SDS011;39735;51.432;5.482;2024-02-16T14:10:13;6.82;;;5.53;;
53833;SDS011;39735;51.432;5.482;2024-02-16T14:12:39;6.35;;;5.63;;
53833;SDS011;39735;51.432;5.482;2024-02-16T14:15:04;9.57;;;7.45;;
53833;SDS011;39735;51.432;5.482;2024-02-16T14:17:30;6.38;;;5.88;;
53833;SDS011;39735;51.432;5.482;2024-02-16T14:19:56;7.13;;;6.53;;
53833;SDS011;39735;51.432;5.482;2024-02-16T14:22:21;5.97;;;5.47;;
53833;SDS011;39735;51.432;5.482;2024-02-16T14:24:48;6.15;;;5.65;;
53833;SDS011;39735;51.432;5.482;2024-02-16T14:27:14;7.78;;;6.63;;
53833;SDS011;39735;51.432;5.482;2024-02-16T14:29:39;10.35;;;6.50;;
53833;SDS011;39735;51.432;5.482;2024-02-16T14:32:05;15.98;;;6.85;;
53833;SDS011;39735;51.432;5.482;2024-02-16T14:34:31;9.00;;;6.40;;
53833;SDS011;39735;51.432;5.482;2024-02-16T14:36:56;15.07;;;8.70;;